createdAt,value
2022-08-14T00:01:11.537Z,66.65
2022-08-14T00:04:32.144Z,65.74
2022-08-14T00:07:41.958Z,66.70
2022-08-14T00:10:51.513Z,66.42
2022-08-14T00:13:55.263Z,64.98
2022-08-14T00:16:57.402Z,63.40
2022-08-14T00:20:03.813Z,67.40
2022-08-14T00:23:12.161Z,66.51
2022-08-14T00:26:23.147Z,62.63
2022-08-14T00:29:27.087Z,62.49
2022-08-14T00:32:51.792Z,65.99
2022-08-14T00:36:35.515Z,64.09
2022-08-14T00:39:17.957Z,64.10
2022-08-14T00:42:54.920Z,62.71
2022-08-14T00:45:52.562Z,67.59
2022-08-14T00:48:54.999Z,67.93
2022-08-14T00:52:00.552Z,68.08
2022-08-14T00:55:03.024Z,68.32
2022-08-14T00:58:27.905Z,70.94
2022-08-14T01:01:36.081Z,69.51
2022-08-14T01:04:53.994Z,68.92
2022-08-14T01:07:58.536Z,67.17
2022-08-14T01:11:00.985Z,73.77
2022-08-14T01:14:25.382Z,70.06
2022-08-14T01:17:50.005Z,74.09
2022-08-14T01:21:07.346Z,75.37
2022-08-14T01:24:10.916Z,73.10
2022-08-14T01:27:22.372Z,72.72
2022-08-14T01:30:27.478Z,71.90
2022-08-14T01:33:30.479Z,74.01
2022-08-14T01:36:46.983Z,75.69
2022-08-14T01:39:49.875Z,75.92
2022-08-14T01:42:56.622Z,74.77
2022-08-14T01:46:06.927Z,72.09
2022-08-14T01:49:11.322Z,75.69
2022-08-14T01:52:33.680Z,71.30
2022-08-14T01:55:40.522Z,71.87
2022-08-14T01:58:57.433Z,75.61
2022-08-14T02:02:04.080Z,71.31
2022-08-14T02:05:06.474Z,75.47
2022-08-14T02:08:10.350Z,72.33
2022-08-14T02:11:22.123Z,77.25
2022-08-14T02:14:31.019Z,74.51
2022-08-14T02:17:34.292Z,74.10
2022-08-14T02:20:36.391Z,74.01
2022-08-14T02:23:39.792Z,71.83
2022-08-14T02:28:18.924Z,71.82
2022-08-14T02:30:10.535Z,72.37
2022-08-14T02:33:15.907Z,70.85
2022-08-14T02:37:04.765Z,70.73
2022-08-14T02:39:45.634Z,75.20
2022-08-14T02:42:54.663Z,75.22
2022-08-14T02:45:59.886Z,71.59
2022-08-14T02:49:06.391Z,69.61
2022-08-14T02:52:26.923Z,69.81
2022-08-14T02:55:33.044Z,74.21
2022-08-14T02:58:41.796Z,76.12
2022-08-14T03:01:50.362Z,76.67
2022-08-14T03:04:55.706Z,76.83
2022-08-14T03:08:09.771Z,75.30
2022-08-14T03:11:13.693Z,72.00
2022-08-14T03:14:18.004Z,73.49
2022-08-14T03:17:20.757Z,72.52
2022-08-14T03:20:24.810Z,69.99
2022-08-14T03:23:28.130Z,70.84
2022-08-14T03:26:31.912Z,72.05
2022-08-14T03:29:34.659Z,69.85
2022-08-14T03:32:37.463Z,70.56
2022-08-14T03:36:05.513Z,70.48
2022-08-14T03:39:13.382Z,68.19
2022-08-14T03:42:24.114Z,70.47
2022-08-14T03:45:34.744Z,72.91
2022-08-14T03:48:40.464Z,71.69
2022-08-14T03:51:42.723Z,70.49
2022-08-14T03:54:52.302Z,69.89
2022-08-14T03:57:55.959Z,72.18
2022-08-14T04:01:00.461Z,71.87
2022-08-14T04:04:07.891Z,74.32
2022-08-14T04:07:10.826Z,72.40
2022-08-14T04:10:13.138Z,71.91
2022-08-14T04:13:20.330Z,74.72
2022-08-14T04:16:26.159Z,76.11
2022-08-14T04:19:36.446Z,76.16
2022-08-14T04:22:42.655Z,72.56
2022-08-14T04:25:46.529Z,75.54
2022-08-14T04:29:07.566Z,74.24
2022-08-14T04:32:59.877Z,71.22
2022-08-14T04:35:50.721Z,73.16
2022-08-14T04:39:17.945Z,76.35
2022-08-14T04:42:38.952Z,76.71
2022-08-14T04:45:51.023Z,74.72
2022-08-14T04:48:55.519Z,73.05
2022-08-14T04:52:15.234Z,74.88
2022-08-14T04:55:21.479Z,72.53
2022-08-14T04:58:32.390Z,74.47
2022-08-14T05:01:39.914Z,73.98
2022-08-14T05:04:45.328Z,76.45
2022-08-14T05:08:09.559Z,78.18
2022-08-14T05:11:12.194Z,75.26
2022-08-14T05:14:43.327Z,72.52
2022-08-14T05:17:44.293Z,74.20
2022-08-14T05:21:54.460Z,71.45
2022-08-14T05:24:25.406Z,75.33
2022-08-14T05:27:30.904Z,76.32
2022-08-14T05:30:34.161Z,72.97
2022-08-14T05:33:37.098Z,76.61
2022-08-14T05:36:39.463Z,74.40
2022-08-14T05:39:41.691Z,76.10
2022-08-14T05:42:46.527Z,73.87
2022-08-14T05:45:55.069Z,75.33
2022-08-14T05:48:58.658Z,72.08
2022-08-14T05:52:02.352Z,72.52
2022-08-14T05:55:09.582Z,73.32
2022-08-14T05:58:11.711Z,77.38
2022-08-14T06:01:13.871Z,76.79
2022-08-14T06:04:16.638Z,73.81
2022-08-14T06:07:18.762Z,72.50
2022-08-14T06:10:21.291Z,69.32
2022-08-14T06:13:31.552Z,72.22
2022-08-14T06:16:45.213Z,73.77
2022-08-14T06:19:47.379Z,72.78
2022-08-14T06:22:51.411Z,74.49
2022-08-14T06:25:53.649Z,72.71
2022-08-14T06:28:55.773Z,69.80
2022-08-14T06:32:00.638Z,73.04
2022-08-14T06:35:20.954Z,73.08
2022-08-14T06:38:24.886Z,72.56
2022-08-14T06:41:56.813Z,74.34
2022-08-14T06:44:49.391Z,71.81
2022-08-14T06:47:55.425Z,75.02
2022-08-14T06:51:01.133Z,75.00
2022-08-14T06:54:03.315Z,70.72
2022-08-14T06:57:05.500Z,70.31
2022-08-14T07:00:22.320Z,72.60
2022-08-14T07:03:48.554Z,73.10
2022-08-14T07:06:54.797Z,71.66
2022-08-14T07:10:00.987Z,70.96
2022-08-14T07:13:04.246Z,67.60
2022-08-14T07:16:07.115Z,71.69
2022-08-14T07:19:09.960Z,69.49
2022-08-14T07:22:17.410Z,67.28
2022-08-14T07:25:22.794Z,65.83
2022-08-14T07:28:43.927Z,68.77
2022-08-14T07:31:46.412Z,65.33
2022-08-14T07:34:49.252Z,63.08
2022-08-14T07:37:52.656Z,66.73
2022-08-14T07:40:54.907Z,67.51
2022-08-14T07:43:57.913Z,65.58
2022-08-14T07:47:00.720Z,65.13
2022-08-14T07:50:08.379Z,63.51
2022-08-14T07:53:14.196Z,64.67
2022-08-14T07:56:44.285Z,63.21
2022-08-14T07:59:44.341Z,64.21
2022-08-14T08:02:55.839Z,60.57
2022-08-14T08:05:59.899Z,60.98
2022-08-14T08:09:02.904Z,62.10
2022-08-14T08:12:09.262Z,61.38
2022-08-14T08:15:17.075Z,61.54
2022-08-14T08:18:20.377Z,61.36
2022-08-14T08:21:33.297Z,61.71
2022-08-14T08:24:37.789Z,59.24
2022-08-14T08:27:44.534Z,61.21
2022-08-14T08:30:53.267Z,62.59
2022-08-14T08:33:57.671Z,60.38
2022-08-14T08:37:03.871Z,61.60
2022-08-14T08:40:09.408Z,60.30
2022-08-14T08:43:25.839Z,59.63
2022-08-14T08:46:27.959Z,57.73
2022-08-14T08:49:48.086Z,59.81
2022-08-14T08:52:55.323Z,58.70
2022-08-14T08:55:57.428Z,55.19
2022-08-14T08:58:59.643Z,53.99
2022-08-14T09:02:06.786Z,53.62
2022-08-14T09:05:12.418Z,55.16
2022-08-14T09:08:30.512Z,54.61
2022-08-14T09:11:34.135Z,55.02
2022-08-14T09:14:38.339Z,54.68
2022-08-14T09:17:42.780Z,52.46
2022-08-14T09:20:47.747Z,52.95
2022-08-14T09:24:28.221Z,53.33
2022-08-14T09:27:22.211Z,52.08
2022-08-14T09:30:33.036Z,50.82
2022-08-14T09:33:59.944Z,52.81
2022-08-14T09:37:16.114Z,51.30
2022-08-14T09:40:37.206Z,51.55
2022-08-14T09:44:09.366Z,50.28
2022-08-14T09:47:11.521Z,49.43
2022-08-14T09:50:20.804Z,48.95
2022-08-14T09:54:19.692Z,48.20
2022-08-14T09:57:30.405Z,47.81
2022-08-14T10:00:50.517Z,46.04
2022-08-14T10:03:56.680Z,45.90
2022-08-14T10:07:01.742Z,45.46
2022-08-14T10:10:22.951Z,44.68
2022-08-14T10:13:26.281Z,42.70
2022-08-14T10:16:41.931Z,43.97
2022-08-14T10:19:48.785Z,44.21
2022-08-14T10:23:14.933Z,42.28
2022-08-14T10:26:23.195Z,40.98
2022-08-14T10:29:38.122Z,42.99
2022-08-14T10:32:51.172Z,42.84
2022-08-14T10:35:54.412Z,41.55
2022-08-14T10:38:58.281Z,40.49
2022-08-14T10:42:16.489Z,40.19
2022-08-14T10:45:42.135Z,38.82
2022-08-14T10:49:04.339Z,38.35
2022-08-14T10:52:08.114Z,37.15
2022-08-14T10:55:16.786Z,37.91
2022-08-14T10:58:28.451Z,38.03
2022-08-14T11:01:41.337Z,37.23
2022-08-14T11:04:43.846Z,37.94
2022-08-14T11:07:55.419Z,34.76
2022-08-14T11:11:02.131Z,35.69
2022-08-14T11:14:09.268Z,35.07
2022-08-14T11:17:11.923Z,36.75
2022-08-14T11:20:16.761Z,36.35
2022-08-14T11:23:19.152Z,35.59
2022-08-14T11:26:24.353Z,36.21
2022-08-14T11:29:26.897Z,35.67
2022-08-14T11:32:31.162Z,36.22
2022-08-14T11:35:44.325Z,35.04
2022-08-14T11:38:49.880Z,35.92
2022-08-14T11:41:57.756Z,34.69
2022-08-14T11:45:04.739Z,33.79
2022-08-14T11:49:02.737Z,34.46
2022-08-14T11:51:53.519Z,31.82
2022-08-14T11:54:58.422Z,32.45
2022-08-14T11:58:09.493Z,31.58
2022-08-14T12:01:12.807Z,29.37
2022-08-14T12:04:21.791Z,27.56
2022-08-14T12:07:36.102Z,28.75
2022-08-14T12:10:42.789Z,27.71
2022-08-14T12:13:45.563Z,27.78
2022-08-14T12:17:12.576Z,27.49
2022-08-14T12:20:15.735Z,27.26
2022-08-14T12:23:32.387Z,26.60
2022-08-14T12:26:40.698Z,27.26
2022-08-14T12:29:55.309Z,26.95
2022-08-14T12:32:57.427Z,27.56
2022-08-14T12:36:06.223Z,26.41
2022-08-14T12:39:21.074Z,24.82
2022-08-14T12:42:40.727Z,24.08
2022-08-14T12:45:55.000Z,25.26
2022-08-14T12:49:06.498Z,25.63
2022-08-14T12:52:16.997Z,25.77
2022-08-14T12:55:21.116Z,24.66
2022-08-14T12:58:49.997Z,23.49
2022-08-14T13:02:01.940Z,23.73
2022-08-14T13:05:12.318Z,23.57
2022-08-14T13:08:33.955Z,22.68
2022-08-14T13:11:45.886Z,21.50
2022-08-14T13:14:48.103Z,23.36
2022-08-14T13:17:52.966Z,24.17
2022-08-14T13:21:01.255Z,24.09
2022-08-14T13:24:04.687Z,23.41
2022-08-14T13:27:10.036Z,23.71
2022-08-14T13:30:21.220Z,23.00
2022-08-14T13:33:26.211Z,22.09
2022-08-14T13:36:51.942Z,22.63
2022-08-14T13:39:57.365Z,23.16
2022-08-14T13:42:59.913Z,21.46
2022-08-14T13:46:04.019Z,22.47
2022-08-14T13:49:10.634Z,21.46
2022-08-14T13:52:14.626Z,21.97
2022-08-14T13:55:34.919Z,20.53
2022-08-14T13:58:37.836Z,21.31
2022-08-14T14:01:44.682Z,21.59
2022-08-14T14:04:49.329Z,20.16
2022-08-14T14:07:54.523Z,21.38
2022-08-14T14:10:56.661Z,19.96
2022-08-14T14:14:01.682Z,21.29
2022-08-14T14:17:12.520Z,20.73
2022-08-14T14:20:35.772Z,20.37
2022-08-14T14:23:38.575Z,20.43
2022-08-14T14:26:40.796Z,19.31
2022-08-14T14:29:51.435Z,18.83
2022-08-14T14:33:04.460Z,18.18
2022-08-14T14:36:09.128Z,17.47
2022-08-14T14:39:11.385Z,18.52
2022-08-14T14:42:18.179Z,18.74
2022-08-14T14:45:22.359Z,19.11
2022-08-14T14:48:27.071Z,20.22
2022-08-14T14:51:31.288Z,20.24
2022-08-14T14:54:39.089Z,19.19
2022-08-14T14:57:42.390Z,19.74
2022-08-14T15:00:46.731Z,19.00
2022-08-14T15:03:54.051Z,19.71
2022-08-14T15:06:56.838Z,21.15
2022-08-14T15:09:59.511Z,20.33
2022-08-14T15:13:04.384Z,22.01
2022-08-14T15:16:09.111Z,20.41
2022-08-14T15:19:11.597Z,21.05
2022-08-14T15:22:16.514Z,21.64
2022-08-14T15:25:18.812Z,21.47
2022-08-14T15:28:22.136Z,20.56
2022-08-14T15:31:25.399Z,19.83
2022-08-14T15:34:43.804Z,21.89
2022-08-14T15:37:55.718Z,21.23
2022-08-14T15:41:01.975Z,21.35
2022-08-14T15:44:04.679Z,21.51
2022-08-14T15:47:27.676Z,21.88
2022-08-14T15:50:31.099Z,23.01
2022-08-14T15:53:33.216Z,20.22
2022-08-14T15:56:42.803Z,21.01
2022-08-14T16:00:04.223Z,22.48
2022-08-14T16:03:15.621Z,22.07
2022-08-14T16:06:18.970Z,21.46
2022-08-14T16:09:21.365Z,22.90
2022-08-14T16:12:41.341Z,22.23
2022-08-14T16:15:53.366Z,23.71
2022-08-14T16:18:58.195Z,22.04
2022-08-14T16:22:58.294Z,22.07
2022-08-14T16:25:35.524Z,22.33
2022-08-14T16:28:38.467Z,22.63
2022-08-14T16:31:42.933Z,22.49
2022-08-14T16:34:48.491Z,22.41
2022-08-14T16:40:25.498Z,22.91
2022-08-14T16:41:23.060Z,23.58
2022-08-14T16:44:33.891Z,23.22
2022-08-14T16:47:36.501Z,23.92
2022-08-14T16:50:40.716Z,22.78
2022-08-14T16:53:47.350Z,24.00
2022-08-14T16:56:49.512Z,22.18
2022-08-14T16:59:57.312Z,23.76
2022-08-14T17:03:08.496Z,24.25
2022-08-14T17:06:33.234Z,25.07
2022-08-14T17:09:43.385Z,25.49
2022-08-14T17:12:46.055Z,26.00
2022-08-14T17:16:25.115Z,25.19
2022-08-14T17:19:28.323Z,25.93
2022-08-14T17:22:52.744Z,25.69
2022-08-14T17:25:56.418Z,27.04
2022-08-14T17:29:21.024Z,25.22
2022-08-14T17:32:29.643Z,27.45
2022-08-14T17:35:58.755Z,27.16
2022-08-14T17:39:11.776Z,26.55
2022-08-14T17:42:14.180Z,27.53
2022-08-14T17:45:41.459Z,27.21
2022-08-14T17:49:14.441Z,27.93
2022-08-14T17:52:16.719Z,29.14
2022-08-14T17:56:02.147Z,29.01
2022-08-14T17:58:42.354Z,28.91
2022-08-14T18:01:46.416Z,29.95
2022-08-14T18:04:48.727Z,29.83
2022-08-14T18:08:32.290Z,29.36
2022-08-14T18:11:17.843Z,28.21
2022-08-14T18:14:31.872Z,27.93
2022-08-14T18:17:36.705Z,28.39
2022-08-14T18:21:42.982Z,30.33
2022-08-14T18:24:01.339Z,31.15
2022-08-14T18:27:28.087Z,31.72
2022-08-14T18:30:36.362Z,31.88
2022-08-14T18:34:06.330Z,34.44
2022-08-14T18:37:20.075Z,33.04
2022-08-14T18:40:22.892Z,34.38
2022-08-14T18:43:44.725Z,33.50
2022-08-14T18:47:08.564Z,34.84
2022-08-14T18:50:27.170Z,35.16
2022-08-14T18:53:54.414Z,34.69
2022-08-14T18:57:01.647Z,34.70
2022-08-14T19:00:54.718Z,35.05
2022-08-14T19:03:59.372Z,36.31
2022-08-14T19:07:16.201Z,37.57
2022-08-14T19:10:31.875Z,37.83
2022-08-14T19:13:44.637Z,39.14
2022-08-14T19:16:53.796Z,39.95
2022-08-14T19:20:09.431Z,41.82
2022-08-14T19:23:19.043Z,42.16
2022-08-14T19:26:37.048Z,42.23
2022-08-14T19:29:51.264Z,41.63
2022-08-14T19:32:56.007Z,42.81
2022-08-14T19:36:28.781Z,44.95
2022-08-14T19:39:56.224Z,45.43
2022-08-14T19:42:59.322Z,44.18
2022-08-14T19:46:01.526Z,43.61
2022-08-14T19:49:04.099Z,46.41
2022-08-14T19:52:17.563Z,47.05
2022-08-14T19:55:34.053Z,45.68
2022-08-14T19:58:54.511Z,46.13
2022-08-14T20:01:59.632Z,50.19
2022-08-14T20:05:05.195Z,50.51
2022-08-14T20:09:05.720Z,45.59
2022-08-14T20:11:42.903Z,47.36
2022-08-14T20:14:51.871Z,49.55
2022-08-14T20:17:54.128Z,48.63
2022-08-14T20:20:56.883Z,50.52
2022-08-14T20:24:40.582Z,49.77
2022-08-14T20:27:44.633Z,45.06
2022-08-14T20:30:48.725Z,42.93
2022-08-14T20:34:24.348Z,47.71
2022-08-14T20:37:27.835Z,45.69
2022-08-14T20:40:50.513Z,45.00
2022-08-14T20:44:28.731Z,44.35
2022-08-14T20:47:50.507Z,47.47
2022-08-14T20:50:53.527Z,45.68
2022-08-14T20:53:57.955Z,44.47
2022-08-14T20:57:14.197Z,46.67
2022-08-14T21:00:36.932Z,46.29
2022-08-14T21:03:56.325Z,45.70
2022-08-14T21:07:25.576Z,47.73
2022-08-14T21:10:44.521Z,46.70
2022-08-14T21:14:20.622Z,46.30
2022-08-14T21:17:09.098Z,46.18
2022-08-14T21:20:26.288Z,46.38
2022-08-14T21:23:32.838Z,45.03
2022-08-14T21:26:51.507Z,43.78
2022-08-14T21:29:57.823Z,44.16
2022-08-14T21:33:01.305Z,48.37
2022-08-14T21:36:09.912Z,48.86
2022-08-14T21:39:17.707Z,45.36
2022-08-14T21:42:20.288Z,48.16
2022-08-14T21:45:23.058Z,47.43
2022-08-14T21:48:30.137Z,46.25
2022-08-14T21:51:55.346Z,45.24
2022-08-14T21:54:55.651Z,44.72
2022-08-14T21:58:52.745Z,43.94
2022-08-14T22:01:21.665Z,45.36
2022-08-14T22:04:32.836Z,49.97
2022-08-14T22:07:36.784Z,50.03
2022-08-14T22:10:44.702Z,50.23
2022-08-14T22:13:48.963Z,48.70
2022-08-14T22:17:01.943Z,52.29
2022-08-14T22:20:16.284Z,52.13
2022-08-14T22:23:19.434Z,53.32
2022-08-14T22:26:22.350Z,50.65
2022-08-14T22:29:33.339Z,49.92
2022-08-14T22:32:56.930Z,50.23
2022-08-14T22:36:00.590Z,51.35
2022-08-14T22:39:03.245Z,44.30
2022-08-14T22:42:19.320Z,50.12
2022-08-14T22:45:23.956Z,51.93
2022-08-14T22:48:26.040Z,53.34
2022-08-14T22:51:31.676Z,51.89
2022-08-14T22:54:52.566Z,52.58
2022-08-14T22:57:55.814Z,54.67
2022-08-14T23:01:01.323Z,53.53
2022-08-14T23:04:04.788Z,52.86
2022-08-14T23:07:22.125Z,49.57
2022-08-14T23:10:32.074Z,51.52
2022-08-14T23:13:38.875Z,52.88
2022-08-14T23:16:42.559Z,52.53
2022-08-14T23:19:45.210Z,53.28
2022-08-14T23:22:50.514Z,53.52
2022-08-14T23:25:59.656Z,53.26
2022-08-14T23:29:04.279Z,53.71
2022-08-14T23:32:06.668Z,51.84
2022-08-14T23:35:28.716Z,53.06
2022-08-14T23:38:35.438Z,51.25
2022-08-14T23:41:46.992Z,48.47
2022-08-14T23:44:55.646Z,49.61
2022-08-14T23:48:02.208Z,48.30
2022-08-14T23:51:04.486Z,48.88
2022-08-14T23:54:47.386Z,44.51
2022-08-14T23:57:30.540Z,45.02
